This is the latest recevied weather packets stored in our database for station/object LZ2SMX-2. If no packets are shown the sender has not sent any weather packets the latest 1 day(s).
| Time | Temp. | Humidity | Pressure | Rain* | Wind** | Luminosity | Snow |
|---|---|---|---|---|---|---|---|
| 1778106787 | 8.89° C | 99% | 991 hPa | 0 mm | - | - | - |
| 1778098388 | 8.89° C | 99% | 991 hPa | 0 mm | - | - | - |
| 1778096160 | 8.89° C | 98% | 991 hPa | 0 mm | - | - | - |
| 1778094788 | 8.89° C | 97% | 991 hPa | 0 mm | - | - | - |
| 1778093588 | 10° C | 97% | 991 hPa | 0 mm | - | - | - |
| 1778089988 | 10° C | 92% | 991 hPa | 0 mm | - | - | - |
| 1778088860 | 11.67° C | 80% | 990 hPa | 0 mm | - | - | - |
| 1778082788 | 13.89° C | 69% | 990 hPa | 0 mm | - | - | - |
| 1778081588 | 15° C | 65% | 991 hPa | 0 mm | - | - | - |
| 1778080420 | 15° C | 62% | 990 hPa | 0 mm | - | - | - |
| 1778076820 | 16.67° C | 56% | 990 hPa | 0 mm | - | - | - |
| 1778073188 | 16.67° C | 53% | 991 hPa | 0 mm | - | - | - |
| 1778070788 | 18.89° C | 51% | 990 hPa | 0 mm | - | - | - |
| 1778065988 | 20° C | 46% | 991 hPa | 0 mm | - | - | - |
| 1778063589 | 18.89° C | 48% | 991 hPa | 0 mm | - | - | - |
| 1778058788 | 18.89° C | 49% | 991 hPa | 0 mm | - | - | - |
| 1778057587 | 18.89° C | 50% | 992 hPa | 0 mm | - | - | - |
| 1778056388 | 17.78° C | 54% | 991 hPa | 0 mm | - | - | - |
| 1778055219 | 17.78° C | 56% | 991 hPa | 0 mm | - | - | - |
| 1778053990 | 17.78° C | 61% | 991 hPa | 0 mm | - | - | - |
| 1778051588 | 15.56° C | 64% | 990 hPa | 0 mm | - | - | - |
| 1778046788 | 13.89° C | 61% | 990 hPa | 0 mm | - | - | - |
| 1778045588 | 13.89° C | 60% | 991 hPa | 0 mm | - | - | - |
| 1778041989 | 11.67° C | 61% | 990 hPa | 0 mm | - | - | - |
| 1778040788 | 10.56° C | 59% | 990 hPa | 0 mm | - | - | - |
* Rain latest hour (hover to see other rain measurements)
** Current wind speed in m/s (hover to see current wind gust speed)